sensor_id;sensor_type;location;lat;lon;timestamp;temperature;humidity
25352;DHT22;13304;48.464;8.712;2024-03-23T00:53:58;12.20;71.40
25352;DHT22;13304;48.464;8.712;2024-03-23T00:56:23;12.20;71.30
25352;DHT22;13304;48.464;8.712;2024-03-23T00:58:49;12.20;72.00
25352;DHT22;13304;48.464;8.712;2024-03-23T01:01:15;12.20;72.00
25352;DHT22;13304;48.464;8.712;2024-03-23T01:03:41;12.20;71.90
25352;DHT22;13304;48.464;8.712;2024-03-23T01:06:06;12.20;72.60
25352;DHT22;13304;48.464;8.712;2024-03-23T01:08:32;12.20;73.20
25352;DHT22;13304;48.464;8.712;2024-03-23T01:10:58;12.20;73.30
25352;DHT22;13304;48.464;8.712;2024-03-23T01:13:24;12.30;73.00
25352;DHT22;13304;48.464;8.712;2024-03-23T01:15:49;12.30;72.80
25352;DHT22;13304;48.464;8.712;2024-03-23T01:18:16;12.30;72.60
25352;DHT22;13304;48.464;8.712;2024-03-23T01:20:44;12.30;73.00
25352;DHT22;13304;48.464;8.712;2024-03-23T01:23:10;12.40;73.40
25352;DHT22;13304;48.464;8.712;2024-03-23T01:25:35;12.40;72.70
25352;DHT22;13304;48.464;8.712;2024-03-23T01:28:01;12.50;72.20
25352;DHT22;13304;48.464;8.712;2024-03-23T01:30:26;12.50;72.80
25352;DHT22;13304;48.464;8.712;2024-03-23T01:32:52;12.50;72.80
25352;DHT22;13304;48.464;8.712;2024-03-23T01:35:17;12.50;72.60
25352;DHT22;13304;48.464;8.712;2024-03-23T01:37:43;12.50;73.00
25352;DHT22;13304;48.464;8.712;2024-03-23T01:40:08;12.50;72.60
25352;DHT22;13304;48.464;8.712;2024-03-23T01:42:34;12.50;73.10
25352;DHT22;13304;48.464;8.712;2024-03-23T01:45:00;12.50;73.60
25352;DHT22;13304;48.464;8.712;2024-03-23T01:47:25;12.50;73.20
25352;DHT22;13304;48.464;8.712;2024-03-23T01:49:51;12.50;73.30
25352;DHT22;13304;48.464;8.712;2024-03-23T01:52:17;12.50;73.70
25352;DHT22;13304;48.464;8.712;2024-03-23T01:54:42;12.50;73.00
25352;DHT22;13304;48.464;8.712;2024-03-23T01:57:08;12.60;73.20
25352;DHT22;13304;48.464;8.712;2024-03-23T01:59:34;12.60;73.20
25352;DHT22;13304;48.464;8.712;2024-03-23T02:02:01;12.60;73.30
25352;DHT22;13304;48.464;8.712;2024-03-23T02:04:26;12.60;73.10
25352;DHT22;13304;48.464;8.712;2024-03-23T02:06:52;12.60;72.90
25352;DHT22;13304;48.464;8.712;2024-03-23T02:09:17;12.60;73.10
25352;DHT22;13304;48.464;8.712;2024-03-23T02:11:43;12.60;72.90
25352;DHT22;13304;48.464;8.712;2024-03-23T02:14:08;12.60;73.50
25352;DHT22;13304;48.464;8.712;2024-03-23T02:16:34;12.60;73.40
25352;DHT22;13304;48.464;8.712;2024-03-23T02:18:59;12.60;72.80
25352;DHT22;13304;48.464;8.712;2024-03-23T02:21:25;12.60;72.60
25352;DHT22;13304;48.464;8.712;2024-03-23T02:23:52;12.60;72.90
25352;DHT22;13304;48.464;8.712;2024-03-23T02:26:18;12.50;73.00
25352;DHT22;13304;48.464;8.712;2024-03-23T02:28:43;12.50;73.60
25352;DHT22;13304;48.464;8.712;2024-03-23T02:31:09;12.50;73.30
25352;DHT22;13304;48.464;8.712;2024-03-23T02:33:35;12.50;73.50
25352;DHT22;13304;48.464;8.712;2024-03-23T02:36:03;12.50;73.70
25352;DHT22;13304;48.464;8.712;2024-03-23T02:38:29;12.50;73.60
25352;DHT22;13304;48.464;8.712;2024-03-23T02:40:54;12.50;74.20
25352;DHT22;13304;48.464;8.712;2024-03-23T02:43:20;12.50;73.70
25352;DHT22;13304;48.464;8.712;2024-03-23T02:45:46;12.50;74.30
25352;DHT22;13304;48.464;8.712;2024-03-23T02:48:11;12.50;74.20
25352;DHT22;13304;48.464;8.712;2024-03-23T02:50:36;12.50;74.30
25352;DHT22;13304;48.464;8.712;2024-03-23T02:53:02;12.50;74.70
25352;DHT22;13304;48.464;8.712;2024-03-23T02:55:28;12.50;74.50
25352;DHT22;13304;48.464;8.712;2024-03-23T02:57:53;12.60;74.80
25352;DHT22;13304;48.464;8.712;2024-03-23T03:00:19;12.60;74.70
25352;DHT22;13304;48.464;8.712;2024-03-23T03:02:44;12.60;75.20
25352;DHT22;13304;48.464;8.712;2024-03-23T03:05:10;12.60;74.60
25352;DHT22;13304;48.464;8.712;2024-03-23T03:07:36;12.60;74.90
25352;DHT22;13304;48.464;8.712;2024-03-23T03:10:04;12.70;74.80
25352;DHT22;13304;48.464;8.712;2024-03-23T03:12:31;12.70;74.80
25352;DHT22;13304;48.464;8.712;2024-03-23T03:14:57;12.70;74.80
25352;DHT22;13304;48.464;8.712;2024-03-23T03:17:23;12.60;74.90
25352;DHT22;13304;48.464;8.712;2024-03-23T03:19:48;12.60;74.90
25352;DHT22;13304;48.464;8.712;2024-03-23T03:22:14;12.60;74.80
25352;DHT22;13304;48.464;8.712;2024-03-23T03:24:39;12.60;75.30
25352;DHT22;13304;48.464;8.712;2024-03-23T03:27:05;12.60;75.00
25352;DHT22;13304;48.464;8.712;2024-03-23T03:29:32;12.60;75.30
25352;DHT22;13304;48.464;8.712;2024-03-23T03:32:01;12.60;75.10
25352;DHT22;13304;48.464;8.712;2024-03-23T03:34:27;12.60;75.90
25352;DHT22;13304;48.464;8.712;2024-03-23T03:36:52;12.60;76.10
25352;DHT22;13304;48.464;8.712;2024-03-23T03:39:18;12.70;75.80
25352;DHT22;13304;48.464;8.712;2024-03-23T03:41:43;12.60;76.30
25352;DHT22;13304;48.464;8.712;2024-03-23T03:44:09;12.70;76.30
25352;DHT22;13304;48.464;8.712;2024-03-23T03:46:34;12.70;75.70
25352;DHT22;13304;48.464;8.712;2024-03-23T03:49:00;12.70;75.80
25352;DHT22;13304;48.464;8.712;2024-03-23T03:51:25;12.70;75.40
25352;DHT22;13304;48.464;8.712;2024-03-23T03:53:51;12.70;75.60
25352;DHT22;13304;48.464;8.712;2024-03-23T03:56:16;12.70;75.50
25352;DHT22;13304;48.464;8.712;2024-03-23T03:58:42;12.70;76.00
25352;DHT22;13304;48.464;8.712;2024-03-23T04:01:07;12.70;76.80
25352;DHT22;13304;48.464;8.712;2024-03-23T04:03:34;12.70;76.30
25352;DHT22;13304;48.464;8.712;2024-03-23T04:05:59;12.70;76.40
25352;DHT22;13304;48.464;8.712;2024-03-23T04:08:25;12.70;76.60
25352;DHT22;13304;48.464;8.712;2024-03-23T04:10:50;12.70;76.40
25352;DHT22;13304;48.464;8.712;2024-03-23T04:13:16;12.70;76.00
25352;DHT22;13304;48.464;8.712;2024-03-23T04:15:41;12.70;75.90
25352;DHT22;13304;48.464;8.712;2024-03-23T04:18:07;12.70;76.90
25352;DHT22;13304;48.464;8.712;2024-03-23T04:20:33;12.70;76.30
25352;DHT22;13304;48.464;8.712;2024-03-23T04:22:59;12.70;76.60
25352;DHT22;13304;48.464;8.712;2024-03-23T04:25:24;12.70;76.40
25352;DHT22;13304;48.464;8.712;2024-03-23T04:27:50;12.80;76.80
25352;DHT22;13304;48.464;8.712;2024-03-23T04:30:15;12.80;76.40
25352;DHT22;13304;48.464;8.712;2024-03-23T04:32:41;12.80;76.70
25352;DHT22;13304;48.464;8.712;2024-03-23T04:35:07;12.80;77.20
25352;DHT22;13304;48.464;8.712;2024-03-23T04:37:37;12.80;77.10
25352;DHT22;13304;48.464;8.712;2024-03-23T04:40:06;12.80;77.60
25352;DHT22;13304;48.464;8.712;2024-03-23T04:42:32;12.80;77.80
25352;DHT22;13304;48.464;8.712;2024-03-23T04:44:58;12.90;78.10
25352;DHT22;13304;48.464;8.712;2024-03-23T04:47:24;12.90;78.40
25352;DHT22;13304;48.464;8.712;2024-03-23T04:49:49;13.00;78.00
25352;DHT22;13304;48.464;8.712;2024-03-23T04:52:15;13.00;78.50
25352;DHT22;13304;48.464;8.712;2024-03-23T04:54:41;13.00;79.60
25352;DHT22;13304;48.464;8.712;2024-03-23T04:57:10;13.00;80.20
25352;DHT22;13304;48.464;8.712;2024-03-23T04:59:36;13.00;82.50
25352;DHT22;13304;48.464;8.712;2024-03-23T05:02:01;13.10;82.50
25352;DHT22;13304;48.464;8.712;2024-03-23T05:04:28;13.10;82.50
25352;DHT22;13304;48.464;8.712;2024-03-23T05:06:53;13.10;82.50
25352;DHT22;13304;48.464;8.712;2024-03-23T05:09:19;13.10;84.00
25352;DHT22;13304;48.464;8.712;2024-03-23T05:11:45;13.20;83.90
25352;DHT22;13304;48.464;8.712;2024-03-23T05:14:11;13.20;84.30
25352;DHT22;13304;48.464;8.712;2024-03-23T05:16:37;13.10;85.80
25352;DHT22;13304;48.464;8.712;2024-03-23T05:19:02;13.10;87.00
25352;DHT22;13304;48.464;8.712;2024-03-23T05:21:28;13.10;86.20
25352;DHT22;13304;48.464;8.712;2024-03-23T05:23:54;13.00;86.30
25352;DHT22;13304;48.464;8.712;2024-03-23T05:26:19;12.90;86.60
25352;DHT22;13304;48.464;8.712;2024-03-23T05:28:45;12.90;86.30
25352;DHT22;13304;48.464;8.712;2024-03-23T05:31:10;12.70;87.00
25352;DHT22;13304;48.464;8.712;2024-03-23T05:33:36;12.70;86.80
25352;DHT22;13304;48.464;8.712;2024-03-23T05:36:05;12.60;87.30
25352;DHT22;13304;48.464;8.712;2024-03-23T05:38:30;12.50;87.40
25352;DHT22;13304;48.464;8.712;2024-03-23T05:40:56;12.40;86.90
25352;DHT22;13304;48.464;8.712;2024-03-23T05:43:22;12.30;86.70
25352;DHT22;13304;48.464;8.712;2024-03-23T05:45:58;12.20;86.60
25352;DHT22;13304;48.464;8.712;2024-03-23T05:48:24;12.20;86.30
25352;DHT22;13304;48.464;8.712;2024-03-23T05:50:50;12.20;86.30
25352;DHT22;13304;48.464;8.712;2024-03-23T05:53:16;12.10;86.90
25352;DHT22;13304;48.464;8.712;2024-03-23T05:55:42;12.00;87.00
25352;DHT22;13304;48.464;8.712;2024-03-23T05:58:07;12.00;87.30
25352;DHT22;13304;48.464;8.712;2024-03-23T06:00:33;12.00;86.90
25352;DHT22;13304;48.464;8.712;2024-03-23T06:02:59;11.90;87.00
25352;DHT22;13304;48.464;8.712;2024-03-23T06:05:24;11.90;87.10
25352;DHT22;13304;48.464;8.712;2024-03-23T06:07:50;11.80;86.90
25352;DHT22;13304;48.464;8.712;2024-03-23T06:10:15;11.80;86.60
25352;DHT22;13304;48.464;8.712;2024-03-23T06:12:41;11.80;86.00
25352;DHT22;13304;48.464;8.712;2024-03-23T06:15:07;11.70;85.80
25352;DHT22;13304;48.464;8.712;2024-03-23T06:17:38;11.70;85.60
25352;DHT22;13304;48.464;8.712;2024-03-23T06:20:04;11.60;85.30
25352;DHT22;13304;48.464;8.712;2024-03-23T06:22:31;11.60;85.00
25352;DHT22;13304;48.464;8.712;2024-03-23T06:24:57;11.50;85.00
25352;DHT22;13304;48.464;8.712;2024-03-23T06:27:22;11.50;85.20
25352;DHT22;13304;48.464;8.712;2024-03-23T06:29:48;11.40;84.90
25352;DHT22;13304;48.464;8.712;2024-03-23T06:32:14;11.40;85.30
25352;DHT22;13304;48.464;8.712;2024-03-23T06:34:42;11.30;85.30
25352;DHT22;13304;48.464;8.712;2024-03-23T06:37:08;11.30;85.40
25352;DHT22;13304;48.464;8.712;2024-03-23T06:39:35;11.30;85.80
25352;DHT22;13304;48.464;8.712;2024-03-23T06:42:01;11.20;85.90
25352;DHT22;13304;48.464;8.712;2024-03-23T06:44:26;11.20;86.20
25352;DHT22;13304;48.464;8.712;2024-03-23T06:46:52;11.10;85.50
25352;DHT22;13304;48.464;8.712;2024-03-23T06:49:17;11.20;85.60
25352;DHT22;13304;48.464;8.712;2024-03-23T06:51:43;11.20;85.70
25352;DHT22;13304;48.464;8.712;2024-03-23T06:54:10;11.10;85.10
25352;DHT22;13304;48.464;8.712;2024-03-23T06:56:35;11.10;85.20
25352;DHT22;13304;48.464;8.712;2024-03-23T06:59:01;11.10;85.30
25352;DHT22;13304;48.464;8.712;2024-03-23T07:01:26;11.10;84.80
25352;DHT22;13304;48.464;8.712;2024-03-23T07:03:54;11.10;85.00
25352;DHT22;13304;48.464;8.712;2024-03-23T07:06:19;11.10;85.30
25352;DHT22;13304;48.464;8.712;2024-03-23T07:08:45;11.10;85.30
25352;DHT22;13304;48.464;8.712;2024-03-23T07:11:10;11.10;85.70
25352;DHT22;13304;48.464;8.712;2024-03-23T07:13:36;11.10;85.30
25352;DHT22;13304;48.464;8.712;2024-03-23T07:16:01;11.10;84.80
25352;DHT22;13304;48.464;8.712;2024-03-23T07:18:26;11.20;84.70
25352;DHT22;13304;48.464;8.712;2024-03-23T07:20:53;11.10;85.20
25352;DHT22;13304;48.464;8.712;2024-03-23T07:23:18;11.20;85.10
25352;DHT22;13304;48.464;8.712;2024-03-23T07:25:44;11.20;84.70
25352;DHT22;13304;48.464;8.712;2024-03-23T07:28:09;11.30;85.00
25352;DHT22;13304;48.464;8.712;2024-03-23T07:30:35;11.30;85.10
25352;DHT22;13304;48.464;8.712;2024-03-23T07:33:01;11.30;85.00
25352;DHT22;13304;48.464;8.712;2024-03-23T07:35:26;11.40;84.60
25352;DHT22;13304;48.464;8.712;2024-03-23T07:37:52;11.30;84.20
25352;DHT22;13304;48.464;8.712;2024-03-23T07:40:17;11.30;83.20
25352;DHT22;13304;48.464;8.712;2024-03-23T07:42:43;11.40;83.50
25352;DHT22;13304;48.464;8.712;2024-03-23T07:45:08;11.30;83.00
25352;DHT22;13304;48.464;8.712;2024-03-23T07:47:34;11.30;82.10
25352;DHT22;13304;48.464;8.712;2024-03-23T07:50:00;11.30;82.50
25352;DHT22;13304;48.464;8.712;2024-03-23T07:52:29;11.30;82.80
25352;DHT22;13304;48.464;8.712;2024-03-23T07:54:54;11.10;81.20
25352;DHT22;13304;48.464;8.712;2024-03-23T07:57:20;11.10;81.90
25352;DHT22;13304;48.464;8.712;2024-03-23T07:59:45;11.10;81.60
25352;DHT22;13304;48.464;8.712;2024-03-23T08:02:11;11.10;80.30
25352;DHT22;13304;48.464;8.712;2024-03-23T08:04:36;11.10;80.10
25352;DHT22;13304;48.464;8.712;2024-03-23T08:07:02;11.10;80.30
25352;DHT22;13304;48.464;8.712;2024-03-23T08:09:27;11.00;80.60
25352;DHT22;13304;48.464;8.712;2024-03-23T08:11:53;11.00;79.70
25352;DHT22;13304;48.464;8.712;2024-03-23T08:14:18;11.00;78.60
25352;DHT22;13304;48.464;8.712;2024-03-23T08:16:45;11.00;77.60
25352;DHT22;13304;48.464;8.712;2024-03-23T08:19:14;11.00;78.20
25352;DHT22;13304;48.464;8.712;2024-03-23T08:21:39;11.00;76.30
25352;DHT22;13304;48.464;8.712;2024-03-23T08:24:05;11.00;77.20
25352;DHT22;13304;48.464;8.712;2024-03-23T08:26:30;11.00;77.40
25352;DHT22;13304;48.464;8.712;2024-03-23T08:28:56;11.00;77.00
25352;DHT22;13304;48.464;8.712;2024-03-23T08:31:22;11.00;76.90
25352;DHT22;13304;48.464;8.712;2024-03-23T08:33:47;11.00;77.10
25352;DHT22;13304;48.464;8.712;2024-03-23T08:36:13;11.10;77.30
25352;DHT22;13304;48.464;8.712;2024-03-23T08:38:39;11.10;76.20
25352;DHT22;13304;48.464;8.712;2024-03-23T08:41:05;11.10;75.40
25352;DHT22;13304;48.464;8.712;2024-03-23T08:43:32;11.20;76.80
25352;DHT22;13304;48.464;8.712;2024-03-23T08:46:14;11.30;75.40
25352;DHT22;13304;48.464;8.712;2024-03-23T08:48:44;11.30;74.70
25352;DHT22;13304;48.464;8.712;2024-03-23T08:51:11;11.30;74.40
25352;DHT22;13304;48.464;8.712;2024-03-23T08:53:37;11.40;75.70
25352;DHT22;13304;48.464;8.712;2024-03-23T08:56:03;11.40;76.10
25352;DHT22;13304;48.464;8.712;2024-03-23T08:58:30;11.30;75.10
25352;DHT22;13304;48.464;8.712;2024-03-23T09:00:56;11.30;75.40
25352;DHT22;13304;48.464;8.712;2024-03-23T09:03:25;11.30;75.30
25352;DHT22;13304;48.464;8.712;2024-03-23T09:05:51;11.30;74.60
25352;DHT22;13304;48.464;8.712;2024-03-23T09:08:16;11.20;76.10
25352;DHT22;13304;48.464;8.712;2024-03-23T09:10:42;11.20;75.50
25352;DHT22;13304;48.464;8.712;2024-03-23T09:13:08;11.10;75.00
25352;DHT22;13304;48.464;8.712;2024-03-23T09:15:34;11.00;75.90
25352;DHT22;13304;48.464;8.712;2024-03-23T09:17:59;11.00;77.00
25352;DHT22;13304;48.464;8.712;2024-03-23T09:20:25;10.90;77.40
25352;DHT22;13304;48.464;8.712;2024-03-23T09:22:51;10.90;77.80
25352;DHT22;13304;48.464;8.712;2024-03-23T09:25:16;10.90;78.40
25352;DHT22;13304;48.464;8.712;2024-03-23T09:27:42;10.90;78.10
25352;DHT22;13304;48.464;8.712;2024-03-23T09:30:07;10.90;76.30
25352;DHT22;13304;48.464;8.712;2024-03-23T09:32:33;10.90;76.50
25352;DHT22;13304;48.464;8.712;2024-03-23T09:34:58;10.80;77.20
25352;DHT22;13304;48.464;8.712;2024-03-23T09:37:24;10.80;76.20
25352;DHT22;13304;48.464;8.712;2024-03-23T09:39:52;10.90;78.00
25352;DHT22;13304;48.464;8.712;2024-03-23T09:42:20;10.90;76.10
25352;DHT22;13304;48.464;8.712;2024-03-23T09:44:45;10.90;76.40
25352;DHT22;13304;48.464;8.712;2024-03-23T09:47:12;10.90;73.80
25352;DHT22;13304;48.464;8.712;2024-03-23T09:49:39;11.00;74.20
25352;DHT22;13304;48.464;8.712;2024-03-23T09:52:05;11.00;74.30
25352;DHT22;13304;48.464;8.712;2024-03-23T09:54:32;11.10;73.00
25352;DHT22;13304;48.464;8.712;2024-03-23T09:56:58;11.10;70.50
25352;DHT22;13304;48.464;8.712;2024-03-23T09:59:23;11.20;72.70
25352;DHT22;13304;48.464;8.712;2024-03-23T10:01:52;11.30;74.00
25352;DHT22;13304;48.464;8.712;2024-03-23T10:04:39;11.30;72.20
25352;DHT22;13304;48.464;8.712;2024-03-23T10:07:17;11.30;69.40
25352;DHT22;13304;48.464;8.712;2024-03-23T10:09:43;11.40;71.40
25352;DHT22;13304;48.464;8.712;2024-03-23T10:12:12;11.30;71.50
25352;DHT22;13304;48.464;8.712;2024-03-23T10:14:42;11.30;71.40
25352;DHT22;13304;48.464;8.712;2024-03-23T10:19:36;11.40;70.90
25352;DHT22;13304;48.464;8.712;2024-03-23T10:22:02;11.40;71.60
25352;DHT22;13304;48.464;8.712;2024-03-23T10:24:27;11.40;70.70
25352;DHT22;13304;48.464;8.712;2024-03-23T10:26:56;11.40;68.00
25352;DHT22;13304;48.464;8.712;2024-03-23T10:29:22;11.60;69.10
25352;DHT22;13304;48.464;8.712;2024-03-23T10:31:47;11.50;68.50
25352;DHT22;13304;48.464;8.712;2024-03-23T10:34:13;11.60;70.20
25352;DHT22;13304;48.464;8.712;2024-03-23T10:36:38;11.70;70.80
25352;DHT22;13304;48.464;8.712;2024-03-23T10:39:06;11.60;69.60
25352;DHT22;13304;48.464;8.712;2024-03-23T10:41:32;11.50;69.00
25352;DHT22;13304;48.464;8.712;2024-03-23T10:43:58;11.50;72.60
25352;DHT22;13304;48.464;8.712;2024-03-23T10:46:25;11.40;73.50
25352;DHT22;13304;48.464;8.712;2024-03-23T10:48:50;11.40;73.20
25352;DHT22;13304;48.464;8.712;2024-03-23T10:51:16;11.10;72.90
25352;DHT22;13304;48.464;8.712;2024-03-23T10:53:42;11.00;73.40
25352;DHT22;13304;48.464;8.712;2024-03-23T10:56:07;10.90;74.40
25352;DHT22;13304;48.464;8.712;2024-03-23T11:00:59;10.60;75.60
25352;DHT22;13304;48.464;8.712;2024-03-23T11:03:34;10.30;75.20
25352;DHT22;13304;48.464;8.712;2024-03-23T11:06:02;10.20;75.20
25352;DHT22;13304;48.464;8.712;2024-03-23T11:08:31;10.10;76.30
25352;DHT22;13304;48.464;8.712;2024-03-23T11:13:38;9.90;75.90
25352;DHT22;13304;48.464;8.712;2024-03-23T11:21:52;9.80;76.50
25352;DHT22;13304;48.464;8.712;2024-03-23T11:24:21;9.70;76.30
25352;DHT22;13304;48.464;8.712;2024-03-23T11:26:48;9.70;77.10
25352;DHT22;13304;48.464;8.712;2024-03-23T11:29:14;9.60;77.40
25352;DHT22;13304;48.464;8.712;2024-03-23T11:31:49;9.50;77.10
25352;DHT22;13304;48.464;8.712;2024-03-23T11:34:15;9.40;77.60
25352;DHT22;13304;48.464;8.712;2024-03-23T11:36:41;9.30;78.70
25352;DHT22;13304;48.464;8.712;2024-03-23T11:39:16;9.30;80.00
25352;DHT22;13304;48.464;8.712;2024-03-23T11:41:52;9.30;80.70
25352;DHT22;13304;48.464;8.712;2024-03-23T11:44:26;9.30;81.10
25352;DHT22;13304;48.464;8.712;2024-03-23T11:46:52;9.40;81.00
25352;DHT22;13304;48.464;8.712;2024-03-23T11:51:48;9.40;81.30
25352;DHT22;13304;48.464;8.712;2024-03-23T11:54:13;9.40;82.00
25352;DHT22;13304;48.464;8.712;2024-03-23T11:56:39;9.50;82.40
25352;DHT22;13304;48.464;8.712;2024-03-23T11:59:05;9.60;82.70
25352;DHT22;13304;48.464;8.712;2024-03-23T12:01:31;9.60;81.80
25352;DHT22;13304;48.464;8.712;2024-03-23T12:03:56;9.70;81.10
25352;DHT22;13304;48.464;8.712;2024-03-23T12:06:22;9.80;80.80
25352;DHT22;13304;48.464;8.712;2024-03-23T12:08:47;9.80;80.00
25352;DHT22;13304;48.464;8.712;2024-03-23T12:11:14;9.90;80.70
25352;DHT22;13304;48.464;8.712;2024-03-23T12:13:41;9.90;80.00
25352;DHT22;13304;48.464;8.712;2024-03-23T12:16:20;9.90;79.80
25352;DHT22;13304;48.464;8.712;2024-03-23T12:18:47;9.90;80.60
25352;DHT22;13304;48.464;8.712;2024-03-23T12:21:13;10.10;79.50
25352;DHT22;13304;48.464;8.712;2024-03-23T12:23:39;10.00;79.10
25352;DHT22;13304;48.464;8.712;2024-03-23T12:26:04;10.00;78.50
25352;DHT22;13304;48.464;8.712;2024-03-23T12:28:30;10.10;79.40
25352;DHT22;13304;48.464;8.712;2024-03-23T12:30:55;10.10;78.90
25352;DHT22;13304;48.464;8.712;2024-03-23T12:33:21;10.10;78.50
25352;DHT22;13304;48.464;8.712;2024-03-23T12:35:47;10.10;78.90
25352;DHT22;13304;48.464;8.712;2024-03-23T12:38:13;10.10;78.60
25352;DHT22;13304;48.464;8.712;2024-03-23T12:40:38;10.00;79.50
25352;DHT22;13304;48.464;8.712;2024-03-23T12:43:04;10.10;80.80
25352;DHT22;13304;48.464;8.712;2024-03-23T12:45:29;10.10;80.40
25352;DHT22;13304;48.464;8.712;2024-03-23T12:47:55;10.10;81.00
25352;DHT22;13304;48.464;8.712;2024-03-23T12:50:20;10.20;79.90
25352;DHT22;13304;48.464;8.712;2024-03-23T12:52:46;10.20;81.10
25352;DHT22;13304;48.464;8.712;2024-03-23T12:55:12;10.10;80.20
25352;DHT22;13304;48.464;8.712;2024-03-23T12:57:38;10.20;81.00
25352;DHT22;13304;48.464;8.712;2024-03-23T13:00:03;10.20;78.50
25352;DHT22;13304;48.464;8.712;2024-03-23T13:02:29;10.30;77.10
25352;DHT22;13304;48.464;8.712;2024-03-23T13:04:55;10.30;77.10
25352;DHT22;13304;48.464;8.712;2024-03-23T13:07:21;10.40;77.70
25352;DHT22;13304;48.464;8.712;2024-03-23T13:09:49;10.50;77.00
25352;DHT22;13304;48.464;8.712;2024-03-23T13:12:15;10.50;77.50
25352;DHT22;13304;48.464;8.712;2024-03-23T13:14:40;10.60;77.60
25352;DHT22;13304;48.464;8.712;2024-03-23T13:17:06;10.70;76.40
25352;DHT22;13304;48.464;8.712;2024-03-23T13:19:32;10.70;74.70
25352;DHT22;13304;48.464;8.712;2024-03-23T13:21:58;10.90;75.10
25352;DHT22;13304;48.464;8.712;2024-03-23T13:24:33;10.70;73.50
25352;DHT22;13304;48.464;8.712;2024-03-23T13:26:58;10.70;74.90
25352;DHT22;13304;48.464;8.712;2024-03-23T13:29:24;10.60;75.00
25352;DHT22;13304;48.464;8.712;2024-03-23T13:31:50;10.60;75.10
25352;DHT22;13304;48.464;8.712;2024-03-23T13:34:16;10.60;76.10
25352;DHT22;13304;48.464;8.712;2024-03-23T13:36:42;10.50;74.90
25352;DHT22;13304;48.464;8.712;2024-03-23T13:39:08;10.40;74.80
25352;DHT22;13304;48.464;8.712;2024-03-23T13:41:37;10.40;74.60
25352;DHT22;13304;48.464;8.712;2024-03-23T13:44:03;10.30;71.90
25352;DHT22;13304;48.464;8.712;2024-03-23T13:46:29;10.20;73.90
25352;DHT22;13304;48.464;8.712;2024-03-23T13:48:54;10.30;75.20
25352;DHT22;13304;48.464;8.712;2024-03-23T13:51:23;10.30;75.00
25352;DHT22;13304;48.464;8.712;2024-03-23T13:53:49;10.20;74.80
25352;DHT22;13304;48.464;8.712;2024-03-23T13:56:15;10.20;74.10
25352;DHT22;13304;48.464;8.712;2024-03-23T13:58:40;10.10;73.00
25352;DHT22;13304;48.464;8.712;2024-03-23T14:01:11;10.10;75.50
25352;DHT22;13304;48.464;8.712;2024-03-23T14:03:36;10.10;76.80
25352;DHT22;13304;48.464;8.712;2024-03-23T14:06:02;10.10;76.60
25352;DHT22;13304;48.464;8.712;2024-03-23T14:08:28;10.00;78.50
25352;DHT22;13304;48.464;8.712;2024-03-23T14:10:54;10.10;78.90
25352;DHT22;13304;48.464;8.712;2024-03-23T14:13:19;10.10;79.30
25352;DHT22;13304;48.464;8.712;2024-03-23T14:15:45;10.10;79.80
25352;DHT22;13304;48.464;8.712;2024-03-23T14:18:10;10.00;79.80
25352;DHT22;13304;48.464;8.712;2024-03-23T14:20:36;10.10;80.30
25352;DHT22;13304;48.464;8.712;2024-03-23T14:23:01;10.10;79.90
25352;DHT22;13304;48.464;8.712;2024-03-23T14:25:28;10.10;79.00
25352;DHT22;13304;48.464;8.712;2024-03-23T14:27:54;10.20;79.20
25352;DHT22;13304;48.464;8.712;2024-03-23T14:30:20;10.20;78.40
25352;DHT22;13304;48.464;8.712;2024-03-23T14:32:45;10.10;78.30
25352;DHT22;13304;48.464;8.712;2024-03-23T14:35:11;10.10;78.60
25352;DHT22;13304;48.464;8.712;2024-03-23T14:37:37;10.00;78.80
25352;DHT22;13304;48.464;8.712;2024-03-23T14:40:03;10.00;79.30
25352;DHT22;13304;48.464;8.712;2024-03-23T14:42:29;9.90;79.60
25352;DHT22;13304;48.464;8.712;2024-03-23T14:44:55;9.80;80.60
25352;DHT22;13304;48.464;8.712;2024-03-23T14:47:21;9.80;81.70
25352;DHT22;13304;48.464;8.712;2024-03-23T14:49:46;9.80;81.70
25352;DHT22;13304;48.464;8.712;2024-03-23T14:52:19;9.80;81.50
25352;DHT22;13304;48.464;8.712;2024-03-23T14:54:45;9.80;82.00
25352;DHT22;13304;48.464;8.712;2024-03-23T14:57:11;9.90;82.50
25352;DHT22;13304;48.464;8.712;2024-03-23T14:59:36;9.90;81.50
25352;DHT22;13304;48.464;8.712;2024-03-23T15:02:08;9.90;80.00
25352;DHT22;13304;48.464;8.712;2024-03-23T15:04:34;9.90;79.70
25352;DHT22;13304;48.464;8.712;2024-03-23T15:06:59;9.90;79.00
25352;DHT22;13304;48.464;8.712;2024-03-23T15:09:25;9.80;77.50
25352;DHT22;13304;48.464;8.712;2024-03-23T15:11:51;9.80;77.70
25352;DHT22;13304;48.464;8.712;2024-03-23T15:14:16;9.80;76.90
25352;DHT22;13304;48.464;8.712;2024-03-23T15:16:42;9.70;77.90
25352;DHT22;13304;48.464;8.712;2024-03-23T15:19:08;9.70;78.70
25352;DHT22;13304;48.464;8.712;2024-03-23T15:21:33;9.60;79.10
25352;DHT22;13304;48.464;8.712;2024-03-23T15:23:59;9.60;79.10
25352;DHT22;13304;48.464;8.712;2024-03-23T15:26:25;9.60;80.00
25352;DHT22;13304;48.464;8.712;2024-03-23T15:28:50;9.60;80.40
25352;DHT22;13304;48.464;8.712;2024-03-23T15:31:22;9.60;80.10
25352;DHT22;13304;48.464;8.712;2024-03-23T15:33:47;9.60;79.90
25352;DHT22;13304;48.464;8.712;2024-03-23T15:36:13;9.60;80.80
25352;DHT22;13304;48.464;8.712;2024-03-23T15:38:38;9.60;79.90
25352;DHT22;13304;48.464;8.712;2024-03-23T15:41:04;9.70;80.20
25352;DHT22;13304;48.464;8.712;2024-03-23T15:43:29;9.80;77.40
25352;DHT22;13304;48.464;8.712;2024-03-23T15:45:56;9.70;77.90
25352;DHT22;13304;48.464;8.712;2024-03-23T15:48:23;9.80;78.70
25352;DHT22;13304;48.464;8.712;2024-03-23T15:50:52;9.80;78.20
25352;DHT22;13304;48.464;8.712;2024-03-23T15:53:20;9.70;76.80
25352;DHT22;13304;48.464;8.712;2024-03-23T15:55:56;9.80;78.20
25352;DHT22;13304;48.464;8.712;2024-03-23T15:58:22;9.80;78.40
25352;DHT22;13304;48.464;8.712;2024-03-23T16:00:57;9.80;77.90
25352;DHT22;13304;48.464;8.712;2024-03-23T16:03:23;9.80;77.00
25352;DHT22;13304;48.464;8.712;2024-03-23T16:05:55;9.70;77.40
25352;DHT22;13304;48.464;8.712;2024-03-23T16:08:21;9.50;76.90
25352;DHT22;13304;48.464;8.712;2024-03-23T16:10:47;9.60;77.90
25352;DHT22;13304;48.464;8.712;2024-03-23T16:13:13;9.50;78.30
25352;DHT22;13304;48.464;8.712;2024-03-23T16:15:38;9.60;79.60
25352;DHT22;13304;48.464;8.712;2024-03-23T16:18:04;9.70;80.10
25352;DHT22;13304;48.464;8.712;2024-03-23T16:20:29;9.80;80.10
25352;DHT22;13304;48.464;8.712;2024-03-23T16:22:56;10.00;79.50
25352;DHT22;13304;48.464;8.712;2024-03-23T16:25:21;10.20;79.00
25352;DHT22;13304;48.464;8.712;2024-03-23T16:27:47;10.40;78.30
25352;DHT22;13304;48.464;8.712;2024-03-23T16:30:12;10.40;76.70
25352;DHT22;13304;48.464;8.712;2024-03-23T16:32:38;10.40;76.20
25352;DHT22;13304;48.464;8.712;2024-03-23T16:35:04;10.30;75.20